sensor_id;sensor_type;location;lat;lon;timestamp;temperature;humidity
20370;DHT22;10344;47.592;9.600;2022-08-24T00:00:07;16.10;99.90
20370;DHT22;10344;47.592;9.600;2022-08-24T00:02:33;16.00;99.90
20370;DHT22;10344;47.592;9.600;2022-08-24T00:04:59;16.10;99.90
20370;DHT22;10344;47.592;9.600;2022-08-24T00:07:25;16.10;99.90
20370;DHT22;10344;47.592;9.600;2022-08-24T00:09:50;16.10;99.90
20370;DHT22;10344;47.592;9.600;2022-08-24T00:12:18;16.10;99.90
20370;DHT22;10344;47.592;9.600;2022-08-24T00:14:44;16.20;99.90
20370;DHT22;10344;47.592;9.600;2022-08-24T00:17:10;16.20;99.90
20370;DHT22;10344;47.592;9.600;2022-08-24T00:19:35;16.30;99.90
20370;DHT22;10344;47.592;9.600;2022-08-24T00:22:04;16.30;99.90
20370;DHT22;10344;47.592;9.600;2022-08-24T00:24:30;16.30;99.90
20370;DHT22;10344;47.592;9.600;2022-08-24T00:26:59;16.30;99.90
20370;DHT22;10344;47.592;9.600;2022-08-24T00:29:27;16.20;99.90
20370;DHT22;10344;47.592;9.600;2022-08-24T00:31:54;16.30;99.90
20370;DHT22;10344;47.592;9.600;2022-08-24T00:34:19;16.30;99.90
20370;DHT22;10344;47.592;9.600;2022-08-24T00:36:47;16.30;99.90
20370;DHT22;10344;47.592;9.600;2022-08-24T00:39:15;16.20;99.90
20370;DHT22;10344;47.592;9.600;2022-08-24T00:41:42;16.10;99.90
20370;DHT22;10344;47.592;9.600;2022-08-24T00:44:08;16.10;99.90
20370;DHT22;10344;47.592;9.600;2022-08-24T00:49:03;16.00;99.90
20370;DHT22;10344;47.592;9.600;2022-08-24T00:51:48;16.00;99.90
20370;DHT22;10344;47.592;9.600;2022-08-24T00:54:14;15.90;99.90
20370;DHT22;10344;47.592;9.600;2022-08-24T00:56:45;15.90;99.90
20370;DHT22;10344;47.592;9.600;2022-08-24T00:59:31;15.90;99.90
20370;DHT22;10344;47.592;9.600;2022-08-24T01:01:58;15.90;99.90
20370;DHT22;10344;47.592;9.600;2022-08-24T01:04:29;15.90;99.90
20370;DHT22;10344;47.592;9.600;2022-08-24T01:06:57;15.80;99.90
20370;DHT22;10344;47.592;9.600;2022-08-24T01:09:34;15.80;99.90
20370;DHT22;10344;47.592;9.600;2022-08-24T01:11:59;15.90;99.90
20370;DHT22;10344;47.592;9.600;2022-08-24T01:14:25;15.90;99.90
20370;DHT22;10344;47.592;9.600;2022-08-24T01:16:51;15.80;99.90
20370;DHT22;10344;47.592;9.600;2022-08-24T01:19:37;15.70;99.90
20370;DHT22;10344;47.592;9.600;2022-08-24T01:22:14;15.60;99.90
20370;DHT22;10344;47.592;9.600;2022-08-24T01:24:46;15.60;99.90
20370;DHT22;10344;47.592;9.600;2022-08-24T01:27:29;15.60;99.90
20370;DHT22;10344;47.592;9.600;2022-08-24T01:30:16;15.50;99.90
20370;DHT22;10344;47.592;9.600;2022-08-24T01:36:14;15.40;99.90
20370;DHT22;10344;47.592;9.600;2022-08-24T01:39:05;15.30;99.90
20370;DHT22;10344;47.592;9.600;2022-08-24T01:41:51;15.30;99.90
20370;DHT22;10344;47.592;9.600;2022-08-24T01:44:18;15.30;99.90
20370;DHT22;10344;47.592;9.600;2022-08-24T01:47:08;15.40;99.90
20370;DHT22;10344;47.592;9.600;2022-08-24T01:50:00;15.30;99.90
20370;DHT22;10344;47.592;9.600;2022-08-24T01:52:26;15.30;99.90
20370;DHT22;10344;47.592;9.600;2022-08-24T01:54:54;15.30;99.90
20370;DHT22;10344;47.592;9.600;2022-08-24T01:57:25;15.30;99.90
20370;DHT22;10344;47.592;9.600;2022-08-24T02:00:13;15.30;99.90
20370;DHT22;10344;47.592;9.600;2022-08-24T02:02:53;15.20;99.90
20370;DHT22;10344;47.592;9.600;2022-08-24T02:08:58;15.10;99.90
20370;DHT22;10344;47.592;9.600;2022-08-24T02:11:41;15.00;99.90
20370;DHT22;10344;47.592;9.600;2022-08-24T02:14:11;15.00;99.90
20370;DHT22;10344;47.592;9.600;2022-08-24T02:16:56;14.90;99.90
20370;DHT22;10344;47.592;9.600;2022-08-24T02:19:40;14.90;99.90
20370;DHT22;10344;47.592;9.600;2022-08-24T02:22:50;14.90;99.90
20370;DHT22;10344;47.592;9.600;2022-08-24T02:29:11;15.00;99.90
20370;DHT22;10344;47.592;9.600;2022-08-24T02:32:36;14.90;99.90
20370;DHT22;10344;47.592;9.600;2022-08-24T02:35:55;14.90;99.90
20370;DHT22;10344;47.592;9.600;2022-08-24T02:48:30;14.70;99.90
20370;DHT22;10344;47.592;9.600;2022-08-24T02:54:53;14.50;99.90
20370;DHT22;10344;47.592;9.600;2022-08-24T03:10:57;14.40;99.90
20370;DHT22;10344;47.592;9.600;2022-08-24T03:29:59;14.20;99.90
20370;DHT22;10344;47.592;9.600;2022-08-24T03:33:01;14.20;99.90
20370;DHT22;10344;47.592;9.600;2022-08-24T03:42:30;14.10;99.90
20370;DHT22;10344;47.592;9.600;2022-08-24T03:45:36;14.00;99.90
20370;DHT22;10344;47.592;9.600;2022-08-24T03:48:47;14.00;99.90
20370;DHT22;10344;47.592;9.600;2022-08-24T03:51:43;14.00;99.90
20370;DHT22;10344;47.592;9.600;2022-08-24T03:54:30;14.00;99.90
20370;DHT22;10344;47.592;9.600;2022-08-24T03:57:28;14.00;99.90
20370;DHT22;10344;47.592;9.600;2022-08-24T04:06:07;13.80;99.90
20370;DHT22;10344;47.592;9.600;2022-08-24T04:08:57;13.80;99.90
20370;DHT22;10344;47.592;9.600;2022-08-24T04:11:32;13.70;99.90
20370;DHT22;10344;47.592;9.600;2022-08-24T04:17:15;13.80;99.90
20370;DHT22;10344;47.592;9.600;2022-08-24T04:20:30;13.70;99.90
20370;DHT22;10344;47.592;9.600;2022-08-24T04:23:32;13.80;99.90
20370;DHT22;10344;47.592;9.600;2022-08-24T04:29:21;13.70;99.90
20370;DHT22;10344;47.592;9.600;2022-08-24T04:49:57;13.60;99.90
20370;DHT22;10344;47.592;9.600;2022-08-24T04:52:44;13.60;99.90
20370;DHT22;10344;47.592;9.600;2022-08-24T05:04:57;13.70;99.90
20370;DHT22;10344;47.592;9.600;2022-08-24T05:07:59;13.70;99.90
20370;DHT22;10344;47.592;9.600;2022-08-24T05:10:56;13.70;99.90
20370;DHT22;10344;47.592;9.600;2022-08-24T05:13:27;13.60;99.90
20370;DHT22;10344;47.592;9.600;2022-08-24T05:16:32;13.70;99.90
20370;DHT22;10344;47.592;9.600;2022-08-24T05:22:44;13.80;99.90
20370;DHT22;10344;47.592;9.600;2022-08-24T05:25:45;13.90;99.90
20370;DHT22;10344;47.592;9.600;2022-08-24T05:28:36;13.90;99.90
20370;DHT22;10344;47.592;9.600;2022-08-24T05:31:32;14.00;99.90
20370;DHT22;10344;47.592;9.600;2022-08-24T05:34:24;14.10;99.90
20370;DHT22;10344;47.592;9.600;2022-08-24T05:37:01;14.10;99.90
20370;DHT22;10344;47.592;9.600;2022-08-24T05:42:16;14.20;99.90
20370;DHT22;10344;47.592;9.600;2022-08-24T05:45:10;14.30;99.90
20370;DHT22;10344;47.592;9.600;2022-08-24T05:47:49;14.30;99.90
20370;DHT22;10344;47.592;9.600;2022-08-24T05:50:26;14.40;99.90
20370;DHT22;10344;47.592;9.600;2022-08-24T05:52:52;14.40;99.90
20370;DHT22;10344;47.592;9.600;2022-08-24T05:55:18;14.40;99.90
20370;DHT22;10344;47.592;9.600;2022-08-24T05:57:47;14.50;99.90
20370;DHT22;10344;47.592;9.600;2022-08-24T06:00:19;14.50;99.90
20370;DHT22;10344;47.592;9.600;2022-08-24T06:02:44;14.60;99.90
20370;DHT22;10344;47.592;9.600;2022-08-24T06:05:18;14.70;99.90
20370;DHT22;10344;47.592;9.600;2022-08-24T06:07:45;14.90;99.90
20370;DHT22;10344;47.592;9.600;2022-08-24T06:10:20;14.90;99.90
20370;DHT22;10344;47.592;9.600;2022-08-24T06:12:48;15.00;99.90
20370;DHT22;10344;47.592;9.600;2022-08-24T06:15:17;15.10;99.90
20370;DHT22;10344;47.592;9.600;2022-08-24T06:17:43;15.20;99.90
20370;DHT22;10344;47.592;9.600;2022-08-24T06:20:08;15.30;99.90
20370;DHT22;10344;47.592;9.600;2022-08-24T06:22:35;15.40;99.90
20370;DHT22;10344;47.592;9.600;2022-08-24T06:25:01;15.50;99.90
20370;DHT22;10344;47.592;9.600;2022-08-24T06:27:45;15.60;99.90
20370;DHT22;10344;47.592;9.600;2022-08-24T06:30:10;15.70;99.90
20370;DHT22;10344;47.592;9.600;2022-08-24T06:32:36;15.80;99.90
20370;DHT22;10344;47.592;9.600;2022-08-24T06:35:03;15.90;99.90
20370;DHT22;10344;47.592;9.600;2022-08-24T06:37:29;16.00;99.90
20370;DHT22;10344;47.592;9.600;2022-08-24T06:39:55;16.10;99.90
20370;DHT22;10344;47.592;9.600;2022-08-24T06:42:21;16.40;99.90
20370;DHT22;10344;47.592;9.600;2022-08-24T06:44:50;16.50;99.90
20370;DHT22;10344;47.592;9.600;2022-08-24T06:47:17;16.60;99.90
20370;DHT22;10344;47.592;9.600;2022-08-24T06:49:45;16.70;99.90
20370;DHT22;10344;47.592;9.600;2022-08-24T06:52:11;17.00;99.90
20370;DHT22;10344;47.592;9.600;2022-08-24T06:54:37;18.10;99.90
20370;DHT22;10344;47.592;9.600;2022-08-24T06:57:04;19.80;99.90
20370;DHT22;10344;47.592;9.600;2022-08-24T06:59:30;21.70;99.90
20370;DHT22;10344;47.592;9.600;2022-08-24T07:01:56;23.50;99.90
20370;DHT22;10344;47.592;9.600;2022-08-24T07:04:26;25.20;99.90
20370;DHT22;10344;47.592;9.600;2022-08-24T07:06:53;26.60;99.90
20370;DHT22;10344;47.592;9.600;2022-08-24T07:09:19;27.60;99.90
20370;DHT22;10344;47.592;9.600;2022-08-24T07:11:49;28.60;99.90
20370;DHT22;10344;47.592;9.600;2022-08-24T07:14:15;28.80;99.90
20370;DHT22;10344;47.592;9.600;2022-08-24T07:16:40;29.20;99.90
20370;DHT22;10344;47.592;9.600;2022-08-24T07:19:07;29.50;99.90
20370;DHT22;10344;47.592;9.600;2022-08-24T07:21:33;29.60;99.10
20370;DHT22;10344;47.592;9.600;2022-08-24T07:23:59;29.80;99.90
20370;DHT22;10344;47.592;9.600;2022-08-24T07:26:28;30.50;97.80
20370;DHT22;10344;47.592;9.600;2022-08-24T07:29:01;30.50;95.90
20370;DHT22;10344;47.592;9.600;2022-08-24T07:31:35;30.60;96.60
20370;DHT22;10344;47.592;9.600;2022-08-24T07:34:06;31.10;97.30
20370;DHT22;10344;47.592;9.600;2022-08-24T07:36:32;31.40;96.90
20370;DHT22;10344;47.592;9.600;2022-08-24T07:38:58;31.50;95.50
20370;DHT22;10344;47.592;9.600;2022-08-24T07:41:25;31.80;93.80
20370;DHT22;10344;47.592;9.600;2022-08-24T07:43:52;32.20;94.80
20370;DHT22;10344;47.592;9.600;2022-08-24T07:46:18;32.40;92.40
20370;DHT22;10344;47.592;9.600;2022-08-24T07:48:44;32.10;91.90
20370;DHT22;10344;47.592;9.600;2022-08-24T07:51:15;31.80;91.80
20370;DHT22;10344;47.592;9.600;2022-08-24T07:53:41;30.90;92.00
20370;DHT22;10344;47.592;9.600;2022-08-24T07:56:08;30.70;91.60
20370;DHT22;10344;47.592;9.600;2022-08-24T07:58:34;29.70;92.70
20370;DHT22;10344;47.592;9.600;2022-08-24T08:01:01;30.50;98.00
20370;DHT22;10344;47.592;9.600;2022-08-24T08:03:28;31.40;93.30
20370;DHT22;10344;47.592;9.600;2022-08-24T08:05:57;31.50;94.90
20370;DHT22;10344;47.592;9.600;2022-08-24T08:08:24;32.20;92.70
20370;DHT22;10344;47.592;9.600;2022-08-24T08:10:50;32.30;93.50
20370;DHT22;10344;47.592;9.600;2022-08-24T08:13:17;32.40;91.00
20370;DHT22;10344;47.592;9.600;2022-08-24T08:15:43;31.60;91.50
20370;DHT22;10344;47.592;9.600;2022-08-24T08:18:11;31.70;96.60
20370;DHT22;10344;47.592;9.600;2022-08-24T08:20:40;32.20;93.90
20370;DHT22;10344;47.592;9.600;2022-08-24T08:23:06;32.30;93.20
20370;DHT22;10344;47.592;9.600;2022-08-24T08:25:52;32.20;90.80
20370;DHT22;10344;47.592;9.600;2022-08-24T08:28:19;32.00;91.50
20370;DHT22;10344;47.592;9.600;2022-08-24T08:30:47;31.50;91.90
20370;DHT22;10344;47.592;9.600;2022-08-24T08:33:13;31.40;92.10
20370;DHT22;10344;47.592;9.600;2022-08-24T08:35:39;30.80;91.70
20370;DHT22;10344;47.592;9.600;2022-08-24T08:38:06;30.40;91.90
20370;DHT22;10344;47.592;9.600;2022-08-24T08:43:28;29.50;93.20
20370;DHT22;10344;47.592;9.600;2022-08-24T08:46:26;29.50;93.20
20370;DHT22;10344;47.592;9.600;2022-08-24T09:05:53;29.50;94.10
20370;DHT22;10344;47.592;9.600;2022-08-24T09:11:39;30.20;93.80
20370;DHT22;10344;47.592;9.600;2022-08-24T09:17:31;28.60;95.50
20370;DHT22;10344;47.592;9.600;2022-08-24T09:22:38;28.10;96.50
20370;DHT22;10344;47.592;9.600;2022-08-24T09:25:35;27.90;96.10
20370;DHT22;10344;47.592;9.600;2022-08-24T09:36:54;28.90;97.30
20370;DHT22;10344;47.592;9.600;2022-08-24T10:01:02;28.60;96.90
20370;DHT22;10344;47.592;9.600;2022-08-24T10:03:49;29.00;96.80
20370;DHT22;10344;47.592;9.600;2022-08-24T10:20:22;26.60;99.30
20370;DHT22;10344;47.592;9.600;2022-08-24T10:25:41;27.00;99.90
20370;DHT22;10344;47.592;9.600;2022-08-24T10:28:38;27.30;99.40
20370;DHT22;10344;47.592;9.600;2022-08-24T10:31:13;27.20;99.90
20370;DHT22;10344;47.592;9.600;2022-08-24T10:33:59;27.40;99.90
20370;DHT22;10344;47.592;9.600;2022-08-24T10:50:55;28.40;98.80
20370;DHT22;10344;47.592;9.600;2022-08-24T10:53:29;28.60;99.90
20370;DHT22;10344;47.592;9.600;2022-08-24T10:56:19;29.10;99.90
20370;DHT22;10344;47.592;9.600;2022-08-24T10:58:58;29.80;98.70
20370;DHT22;10344;47.592;9.600;2022-08-24T11:01:32;29.70;97.60
20370;DHT22;10344;47.592;9.600;2022-08-24T11:04:12;29.60;98.10
20370;DHT22;10344;47.592;9.600;2022-08-24T11:07:22;29.90;98.00
20370;DHT22;10344;47.592;9.600;2022-08-24T11:09:55;29.70;96.80
20370;DHT22;10344;47.592;9.600;2022-08-24T11:12:44;29.50;97.00
20370;DHT22;10344;47.592;9.600;2022-08-24T11:15:19;29.10;97.40
20370;DHT22;10344;47.592;9.600;2022-08-24T11:17:57;29.30;98.30
20370;DHT22;10344;47.592;9.600;2022-08-24T11:20:43;29.70;97.50
20370;DHT22;10344;47.592;9.600;2022-08-24T11:23:19;30.10;97.60
20370;DHT22;10344;47.592;9.600;2022-08-24T11:26:02;30.60;97.90
20370;DHT22;10344;47.592;9.600;2022-08-24T11:29:04;31.10;96.20
20370;DHT22;10344;47.592;9.600;2022-08-24T11:31:34;30.80;95.30
20370;DHT22;10344;47.592;9.600;2022-08-24T11:34:08;30.40;95.80
20370;DHT22;10344;47.592;9.600;2022-08-24T11:36:37;30.40;95.90
20370;DHT22;10344;47.592;9.600;2022-08-24T11:39:20;30.70;95.50
20370;DHT22;10344;47.592;9.600;2022-08-24T12:01:25;32.70;91.40
20370;DHT22;10344;47.592;9.600;2022-08-24T12:07:30;33.20;89.00
20370;DHT22;10344;47.592;9.600;2022-08-24T12:09:51;33.40;90.00
20370;DHT22;10344;47.592;9.600;2022-08-24T12:15:41;33.70;86.30
20370;DHT22;10344;47.592;9.600;2022-08-24T12:20:45;33.60;86.80
20370;DHT22;10344;47.592;9.600;2022-08-24T12:23:26;33.40;82.30
20370;DHT22;10344;47.592;9.600;2022-08-24T12:25:59;33.20;84.80
20370;DHT22;10344;47.592;9.600;2022-08-24T12:31:16;33.40;83.90
20370;DHT22;10344;47.592;9.600;2022-08-24T12:33:48;33.10;85.00
20370;DHT22;10344;47.592;9.600;2022-08-24T12:36:32;33.10;85.00
20370;DHT22;10344;47.592;9.600;2022-08-24T12:39:09;33.10;84.20
20370;DHT22;10344;47.592;9.600;2022-08-24T12:44:14;33.00;81.80
20370;DHT22;10344;47.592;9.600;2022-08-24T12:46:41;32.80;85.70
20370;DHT22;10344;47.592;9.600;2022-08-24T12:49:29;32.90;85.00
20370;DHT22;10344;47.592;9.600;2022-08-24T13:00:27;32.80;82.60
20370;DHT22;10344;47.592;9.600;2022-08-24T13:03:03;32.80;81.30
20370;DHT22;10344;47.592;9.600;2022-08-24T13:05:42;32.90;82.50
20370;DHT22;10344;47.592;9.600;2022-08-24T13:08:31;33.10;79.70
20370;DHT22;10344;47.592;9.600;2022-08-24T13:11:27;33.20;81.80
20370;DHT22;10344;47.592;9.600;2022-08-24T13:29:42;32.40;79.70
20370;DHT22;10344;47.592;9.600;2022-08-24T13:32:21;32.40;81.00
20370;DHT22;10344;47.592;9.600;2022-08-24T13:34:50;32.50;81.40
20370;DHT22;10344;47.592;9.600;2022-08-24T13:37:20;32.60;82.20
20370;DHT22;10344;47.592;9.600;2022-08-24T13:40:15;32.70;82.30
20370;DHT22;10344;47.592;9.600;2022-08-24T13:59:10;31.50;82.30
20370;DHT22;10344;47.592;9.600;2022-08-24T14:37:39;31.50;83.70
20370;DHT22;10344;47.592;9.600;2022-08-24T14:42:55;31.30;83.90
20370;DHT22;10344;47.592;9.600;2022-08-24T14:48:47;31.30;82.80
20370;DHT22;10344;47.592;9.600;2022-08-24T15:02:42;31.40;85.70
20370;DHT22;10344;47.592;9.600;2022-08-24T15:13:30;31.90;85.00
20370;DHT22;10344;47.592;9.600;2022-08-24T15:16:17;31.90;82.90
20370;DHT22;10344;47.592;9.600;2022-08-24T15:19:00;32.20;84.30
20370;DHT22;10344;47.592;9.600;2022-08-24T15:21:40;32.30;85.60
20370;DHT22;10344;47.592;9.600;2022-08-24T15:24:29;32.60;85.50
20370;DHT22;10344;47.592;9.600;2022-08-24T15:29:34;32.70;83.70
20370;DHT22;10344;47.592;9.600;2022-08-24T15:32:05;32.60;84.30
20370;DHT22;10344;47.592;9.600;2022-08-24T15:37:08;32.40;84.20
20370;DHT22;10344;47.592;9.600;2022-08-24T15:39:35;32.40;84.10
20370;DHT22;10344;47.592;9.600;2022-08-24T15:42:08;32.20;84.80
20370;DHT22;10344;47.592;9.600;2022-08-24T15:44:35;32.10;85.40
20370;DHT22;10344;47.592;9.600;2022-08-24T15:47:08;31.90;86.80
20370;DHT22;10344;47.592;9.600;2022-08-24T15:49:46;31.80;86.80
20370;DHT22;10344;47.592;9.600;2022-08-24T15:52:39;31.60;87.20
20370;DHT22;10344;47.592;9.600;2022-08-24T15:55:11;31.50;87.60
20370;DHT22;10344;47.592;9.600;2022-08-24T15:57:43;31.40;88.40
20370;DHT22;10344;47.592;9.600;2022-08-24T16:00:19;31.50;88.40
20370;DHT22;10344;47.592;9.600;2022-08-24T16:09:13;31.20;87.10
20370;DHT22;10344;47.592;9.600;2022-08-24T16:11:40;30.80;88.40
20370;DHT22;10344;47.592;9.600;2022-08-24T16:17:00;29.40;90.80
20370;DHT22;10344;47.592;9.600;2022-08-24T16:19:52;29.00;91.10
20370;DHT22;10344;47.592;9.600;2022-08-24T16:25:28;28.30;91.90
20370;DHT22;10344;47.592;9.600;2022-08-24T16:30:44;28.00;92.60
20370;DHT22;10344;47.592;9.600;2022-08-24T16:35:57;27.70;93.20
20370;DHT22;10344;47.592;9.600;2022-08-24T16:38:29;27.60;93.80
20370;DHT22;10344;47.592;9.600;2022-08-24T16:41:05;27.40;94.20
20370;DHT22;10344;47.592;9.600;2022-08-24T16:43:33;27.30;94.30
20370;DHT22;10344;47.592;9.600;2022-08-24T16:46:02;27.20;94.80
20370;DHT22;10344;47.592;9.600;2022-08-24T16:48:28;27.20;94.50
20370;DHT22;10344;47.592;9.600;2022-08-24T16:50:53;27.20;94.40
20370;DHT22;10344;47.592;9.600;2022-08-24T16:53:22;27.10;95.20
20370;DHT22;10344;47.592;9.600;2022-08-24T16:55:49;26.90;94.80
20370;DHT22;10344;47.592;9.600;2022-08-24T16:58:18;26.80;94.80
20370;DHT22;10344;47.592;9.600;2022-08-24T17:00:44;26.80;95.30
20370;DHT22;10344;47.592;9.600;2022-08-24T17:03:11;26.80;95.90
20370;DHT22;10344;47.592;9.600;2022-08-24T17:05:37;26.70;95.80
20370;DHT22;10344;47.592;9.600;2022-08-24T17:08:03;26.60;96.40
20370;DHT22;10344;47.592;9.600;2022-08-24T17:10:28;26.40;96.70
20370;DHT22;10344;47.592;9.600;2022-08-24T17:12:56;26.30;97.00
20370;DHT22;10344;47.592;9.600;2022-08-24T17:15:22;26.20;97.40
20370;DHT22;10344;47.592;9.600;2022-08-24T17:18:04;26.10;97.60
20370;DHT22;10344;47.592;9.600;2022-08-24T17:20:32;26.00;97.40
20370;DHT22;10344;47.592;9.600;2022-08-24T17:22:58;25.90;97.90
20370;DHT22;10344;47.592;9.600;2022-08-24T17:25:24;25.90;97.60
20370;DHT22;10344;47.592;9.600;2022-08-24T17:27:52;25.80;97.50
20370;DHT22;10344;47.592;9.600;2022-08-24T17:30:21;25.70;97.90
20370;DHT22;10344;47.592;9.600;2022-08-24T17:32:49;25.60;98.00
20370;DHT22;10344;47.592;9.600;2022-08-24T17:35:15;25.60;98.20
20370;DHT22;10344;47.592;9.600;2022-08-24T17:37:41;25.60;97.80
20370;DHT22;10344;47.592;9.600;2022-08-24T17:40:15;25.60;98.30
20370;DHT22;10344;47.592;9.600;2022-08-24T17:42:41;25.40;98.90
20370;DHT22;10344;47.592;9.600;2022-08-24T17:45:07;25.40;98.70
20370;DHT22;10344;47.592;9.600;2022-08-24T17:47:33;25.30;98.90
20370;DHT22;10344;47.592;9.600;2022-08-24T17:49:59;25.30;99.20
20370;DHT22;10344;47.592;9.600;2022-08-24T17:52:25;25.20;99.20
20370;DHT22;10344;47.592;9.600;2022-08-24T17:54:51;25.20;99.30
20370;DHT22;10344;47.592;9.600;2022-08-24T17:57:18;25.10;99.80
20370;DHT22;10344;47.592;9.600;2022-08-24T17:59:47;25.00;99.90
20370;DHT22;10344;47.592;9.600;2022-08-24T18:02:17;25.00;99.90
20370;DHT22;10344;47.592;9.600;2022-08-24T18:04:43;24.90;99.90
20370;DHT22;10344;47.592;9.600;2022-08-24T18:07:11;24.70;99.90
20370;DHT22;10344;47.592;9.600;2022-08-24T18:09:42;24.60;99.90
20370;DHT22;10344;47.592;9.600;2022-08-24T18:12:10;24.60;99.90
20370;DHT22;10344;47.592;9.600;2022-08-24T18:14:36;24.50;99.90
20370;DHT22;10344;47.592;9.600;2022-08-24T18:17:05;24.50;99.90
20370;DHT22;10344;47.592;9.600;2022-08-24T18:19:32;24.40;99.90
20370;DHT22;10344;47.592;9.600;2022-08-24T18:21:58;24.30;99.90
20370;DHT22;10344;47.592;9.600;2022-08-24T18:24:26;24.20;99.90
20370;DHT22;10344;47.592;9.600;2022-08-24T18:27:02;24.20;99.90
20370;DHT22;10344;47.592;9.600;2022-08-24T18:29:31;24.10;99.90
20370;DHT22;10344;47.592;9.600;2022-08-24T18:31:57;24.10;99.90
20370;DHT22;10344;47.592;9.600;2022-08-24T18:34:23;24.00;99.90
20370;DHT22;10344;47.592;9.600;2022-08-24T18:36:52;23.90;99.90
20370;DHT22;10344;47.592;9.600;2022-08-24T18:39:17;23.80;99.90
20370;DHT22;10344;47.592;9.600;2022-08-24T18:41:44;23.70;99.90
20370;DHT22;10344;47.592;9.600;2022-08-24T18:44:10;23.70;99.90
20370;DHT22;10344;47.592;9.600;2022-08-24T18:46:37;23.60;99.90
20370;DHT22;10344;47.592;9.600;2022-08-24T18:49:03;23.60;99.90
20370;DHT22;10344;47.592;9.600;2022-08-24T18:51:30;23.60;99.90
20370;DHT22;10344;47.592;9.600;2022-08-24T18:54:02;23.50;99.90
20370;DHT22;10344;47.592;9.600;2022-08-24T18:56:28;23.40;99.90
20370;DHT22;10344;47.592;9.600;2022-08-24T18:58:54;23.40;99.90
20370;DHT22;10344;47.592;9.600;2022-08-24T19:01:20;23.30;99.90
20370;DHT22;10344;47.592;9.600;2022-08-24T19:03:46;23.20;99.90
20370;DHT22;10344;47.592;9.600;2022-08-24T19:06:11;23.10;99.90
20370;DHT22;10344;47.592;9.600;2022-08-24T19:08:37;23.00;99.90
20370;DHT22;10344;47.592;9.600;2022-08-24T19:11:02;22.90;99.90
20370;DHT22;10344;47.592;9.600;2022-08-24T19:13:29;22.80;99.90
20370;DHT22;10344;47.592;9.600;2022-08-24T19:15:55;22.90;99.90
20370;DHT22;10344;47.592;9.600;2022-08-24T19:18:22;22.90;99.90
20370;DHT22;10344;47.592;9.600;2022-08-24T19:20:48;22.80;99.90
20370;DHT22;10344;47.592;9.600;2022-08-24T19:23:20;22.80;99.90
20370;DHT22;10344;47.592;9.600;2022-08-24T19:25:47;22.70;99.90
20370;DHT22;10344;47.592;9.600;2022-08-24T19:28:12;22.60;99.90
20370;DHT22;10344;47.592;9.600;2022-08-24T19:30:38;22.70;99.90
20370;DHT22;10344;47.592;9.600;2022-08-24T19:33:05;22.60;99.90
20370;DHT22;10344;47.592;9.600;2022-08-24T19:35:31;22.50;99.90
20370;DHT22;10344;47.592;9.600;2022-08-24T19:37:58;22.50;99.90
20370;DHT22;10344;47.592;9.600;2022-08-24T19:40:23;22.50;99.90
20370;DHT22;10344;47.592;9.600;2022-08-24T19:42:49;22.40;99.90
20370;DHT22;10344;47.592;9.600;2022-08-24T19:45:15;22.30;99.90
20370;DHT22;10344;47.592;9.600;2022-08-24T19:48:00;22.10;99.90
20370;DHT22;10344;47.592;9.600;2022-08-24T19:50:26;22.20;99.90
20370;DHT22;10344;47.592;9.600;2022-08-24T19:52:51;22.10;99.90
20370;DHT22;10344;47.592;9.600;2022-08-24T19:55:17;22.00;99.90
20370;DHT22;10344;47.592;9.600;2022-08-24T20:00:35;21.90;99.90
20370;DHT22;10344;47.592;9.600;2022-08-24T20:03:01;21.90;99.90
20370;DHT22;10344;47.592;9.600;2022-08-24T20:05:28;21.90;99.90
20370;DHT22;10344;47.592;9.600;2022-08-24T20:07:56;21.90;99.90
20370;DHT22;10344;47.592;9.600;2022-08-24T20:10:22;21.80;99.90
20370;DHT22;10344;47.592;9.600;2022-08-24T20:12:48;21.80;99.90
20370;DHT22;10344;47.592;9.600;2022-08-24T20:15:17;21.70;99.90
20370;DHT22;10344;47.592;9.600;2022-08-24T20:17:43;21.70;99.90
20370;DHT22;10344;47.592;9.600;2022-08-24T20:20:09;21.60;99.90
20370;DHT22;10344;47.592;9.600;2022-08-24T20:22:35;21.60;99.90
20370;DHT22;10344;47.592;9.600;2022-08-24T20:25:00;21.60;99.90
20370;DHT22;10344;47.592;9.600;2022-08-24T20:27:29;21.60;99.90
20370;DHT22;10344;47.592;9.600;2022-08-24T20:29:55;21.60;99.90
20370;DHT22;10344;47.592;9.600;2022-08-24T20:32:23;21.50;99.90
20370;DHT22;10344;47.592;9.600;2022-08-24T20:34:52;21.40;99.90
20370;DHT22;10344;47.592;9.600;2022-08-24T20:37:18;21.40;99.90
20370;DHT22;10344;47.592;9.600;2022-08-24T20:39:45;21.40;99.90
20370;DHT22;10344;47.592;9.600;2022-08-24T20:42:11;21.30;99.90
20370;DHT22;10344;47.592;9.600;2022-08-24T20:44:37;21.30;99.90
20370;DHT22;10344;47.592;9.600;2022-08-24T20:47:02;21.30;99.90
20370;DHT22;10344;47.592;9.600;2022-08-24T20:49:28;21.30;99.90
20370;DHT22;10344;47.592;9.600;2022-08-24T20:51:55;21.30;99.90
20370;DHT22;10344;47.592;9.600;2022-08-24T20:54:21;21.30;99.90
20370;DHT22;10344;47.592;9.600;2022-08-24T20:56:47;21.20;99.90
20370;DHT22;10344;47.592;9.600;2022-08-24T20:59:13;21.20;99.90
20370;DHT22;10344;47.592;9.600;2022-08-24T21:01:39;21.30;99.90
20370;DHT22;10344;47.592;9.600;2022-08-24T21:04:07;21.30;99.90
20370;DHT22;10344;47.592;9.600;2022-08-24T21:06:33;21.30;99.90
20370;DHT22;10344;47.592;9.600;2022-08-24T21:08:59;21.20;99.90
20370;DHT22;10344;47.592;9.600;2022-08-24T21:11:25;21.20;99.90
20370;DHT22;10344;47.592;9.600;2022-08-24T21:13:50;21.20;99.90
20370;DHT22;10344;47.592;9.600;2022-08-24T21:16:16;21.20;99.90
20370;DHT22;10344;47.592;9.600;2022-08-24T21:18:42;21.10;99.90
20370;DHT22;10344;47.592;9.600;2022-08-24T21:21:08;21.10;99.90
20370;DHT22;10344;47.592;9.600;2022-08-24T21:23:33;21.00;99.90
20370;DHT22;10344;47.592;9.600;2022-08-24T21:26:00;21.00;99.90
20370;DHT22;10344;47.592;9.600;2022-08-24T21:28:26;21.00;99.90
20370;DHT22;10344;47.592;9.600;2022-08-24T21:30:51;21.00;99.90
20370;DHT22;10344;47.592;9.600;2022-08-24T21:33:17;20.90;99.90
20370;DHT22;10344;47.592;9.600;2022-08-24T21:36:01;20.80;99.90
20370;DHT22;10344;47.592;9.600;2022-08-24T21:38:31;20.70;99.90
20370;DHT22;10344;47.592;9.600;2022-08-24T21:40:59;20.70;99.90
20370;DHT22;10344;47.592;9.600;2022-08-24T21:43:25;20.60;99.90
20370;DHT22;10344;47.592;9.600;2022-08-24T21:45:51;20.60;99.90
20370;DHT22;10344;47.592;9.600;2022-08-24T21:48:17;20.70;99.90
20370;DHT22;10344;47.592;9.600;2022-08-24T21:50:43;20.60;99.90
20370;DHT22;10344;47.592;9.600;2022-08-24T21:53:09;20.60;99.90
20370;DHT22;10344;47.592;9.600;2022-08-24T21:55:36;20.50;99.90
20370;DHT22;10344;47.592;9.600;2022-08-24T21:58:02;20.50;99.90
20370;DHT22;10344;47.592;9.600;2022-08-24T22:00:30;20.40;99.90
20370;DHT22;10344;47.592;9.600;2022-08-24T22:02:57;20.40;99.90
20370;DHT22;10344;47.592;9.600;2022-08-24T22:05:24;20.30;99.90